Terminal Aerodrome Forecast
Issued by NWS Tampa Bay Area, FL

Home | Current Version | Previous Version | Text Only | Print | Product List | Glossary On
Versions: 1 2 3 4 5 6 7 8 9 10 11 12 13 14 15 16 17
000
FTUS42 KTBW 060155 AAB
TAFSRQ
TAF AMD
KSRQ 060155Z 0602/0624 10011KT 6SM -RA VCTS SCT035CB BKN250
     FM060300 VRB06KT P6SM VCSH SCT040 BKN250
     FM060500 VRB03KT P6SM FEW040 BKN200
     FM061400 VRB05KT P6SM SCT035
     FM061700 29007KT P6SM VCTS SCT025 BKN050CB=

USA.gov is the U.S. government's official web portal to all federal, state and local government web resources and services.